createdAt,value
2018-10-19T00:02:16.378Z,13.20
2018-10-19T00:04:44.921Z,13.20
2018-10-19T00:07:13.476Z,13.20
2018-10-19T00:09:42.075Z,13.20
2018-10-19T00:12:10.665Z,13.20
2018-10-19T00:14:39.151Z,13.20
2018-10-19T00:17:07.672Z,13.20
2018-10-19T00:19:36.249Z,13.10
2018-10-19T00:22:05.136Z,13.10
2018-10-19T00:24:33.683Z,13.10
2018-10-19T00:27:02.225Z,13.10
2018-10-19T00:29:30.840Z,13.10
2018-10-19T00:31:59.391Z,13.10
2018-10-19T00:34:28.091Z,13.00
2018-10-19T00:36:56.764Z,13.00
2018-10-19T00:39:25.285Z,12.90
2018-10-19T00:41:54.026Z,12.90
2018-10-19T00:44:22.602Z,12.80
2018-10-19T00:46:51.121Z,12.80
2018-10-19T00:49:19.747Z,12.80
2018-10-19T00:51:48.264Z,12.80
2018-10-19T00:54:16.880Z,12.80
2018-10-19T00:56:45.498Z,12.70
2018-10-19T00:59:14.237Z,12.70
2018-10-19T01:01:42.685Z,12.70
2018-10-19T01:04:11.341Z,12.60
2018-10-19T01:06:39.907Z,12.60
2018-10-19T01:09:09.338Z,12.50
2018-10-19T01:11:37.879Z,12.50
2018-10-19T01:14:09.156Z,12.50
2018-10-19T01:16:37.787Z,12.50
2018-10-19T01:19:06.348Z,12.50
2018-10-19T01:21:34.995Z,12.50
2018-10-19T01:24:03.615Z,12.40
2018-10-19T01:26:32.213Z,12.50
2018-10-19T01:29:00.863Z,12.50
2018-10-19T01:31:29.446Z,12.40
2018-10-19T01:33:58.100Z,12.30
2018-10-19T01:36:32.084Z,12.30
2018-10-19T01:39:00.687Z,12.40
2018-10-19T01:41:29.196Z,12.30
2018-10-19T01:43:57.850Z,12.30
2018-10-19T01:46:26.378Z,12.30
2018-10-19T01:48:55.989Z,12.30
2018-10-19T01:51:24.532Z,12.30
2018-10-19T01:53:53.143Z,12.20
2018-10-19T01:56:22.010Z,12.20
2018-10-19T01:58:50.457Z,12.20
2018-10-19T02:01:18.987Z,12.10
2018-10-19T02:03:47.521Z,12.10
2018-10-19T02:06:16.386Z,12.20
2018-10-19T02:08:45.731Z,12.20
2018-10-19T02:11:14.391Z,12.20
2018-10-19T02:13:43.107Z,12.20
2018-10-19T02:16:11.732Z,12.20
2018-10-19T02:18:40.328Z,12.10
2018-10-19T02:21:08.908Z,12.10
2018-10-19T02:23:37.480Z,12.10
2018-10-19T02:26:06.100Z,12.10
2018-10-19T02:28:34.568Z,12.10
2018-10-19T02:31:03.199Z,12.10
2018-10-19T02:33:31.755Z,12.00
2018-10-19T02:36:00.417Z,12.00
2018-10-19T02:38:28.943Z,11.90
2018-10-19T02:40:57.484Z,11.90
2018-10-19T02:43:25.956Z,11.90
2018-10-19T02:45:54.452Z,11.90
2018-10-19T02:48:23.052Z,11.90
2018-10-19T02:50:51.536Z,11.80
2018-10-19T02:53:20.235Z,11.90
2018-10-19T02:55:48.770Z,11.90
2018-10-19T02:58:17.202Z,11.80
2018-10-19T03:00:45.731Z,11.80
2018-10-19T03:03:14.365Z,11.70
2018-10-19T03:05:42.970Z,11.80
2018-10-19T03:08:11.483Z,11.80
2018-10-19T03:10:39.951Z,11.80
2018-10-19T03:13:08.473Z,11.80
2018-10-19T03:15:36.869Z,11.80
2018-10-19T03:18:05.552Z,11.70
2018-10-19T03:20:33.998Z,11.70
2018-10-19T03:23:02.722Z,11.70
2018-10-19T03:25:31.153Z,11.70
2018-10-19T03:27:59.697Z,11.60
2018-10-19T03:30:28.283Z,11.60
2018-10-19T03:32:56.849Z,11.60
2018-10-19T03:35:25.355Z,11.50
2018-10-19T03:37:53.798Z,11.60
2018-10-19T03:40:23.155Z,11.50
2018-10-19T03:42:51.594Z,11.60
2018-10-19T03:45:20.031Z,11.50
2018-10-19T03:47:52.383Z,11.50
2018-10-19T03:50:20.880Z,11.50
2018-10-19T03:52:49.274Z,11.60
2018-10-19T03:55:17.810Z,11.60
2018-10-19T03:57:46.192Z,11.60
2018-10-19T04:00:15.946Z,11.70
2018-10-19T04:02:44.401Z,11.70
2018-10-19T04:05:13.041Z,11.60
2018-10-19T04:07:41.522Z,11.50
2018-10-19T04:10:10.003Z,11.40
2018-10-19T04:12:38.517Z,11.40
2018-10-19T04:15:08.440Z,11.40
2018-10-19T04:17:36.970Z,11.40
2018-10-19T04:20:05.583Z,11.40
2018-10-19T04:22:33.969Z,11.40
2018-10-19T04:25:02.575Z,11.50
2018-10-19T04:27:31.236Z,11.40
2018-10-19T04:29:59.703Z,11.50
2018-10-19T04:32:28.173Z,11.40
2018-10-19T04:34:56.690Z,11.50
2018-10-19T04:37:25.361Z,11.40
2018-10-19T04:39:54.881Z,11.40
2018-10-19T04:42:23.547Z,11.40
2018-10-19T04:44:51.899Z,11.30
2018-10-19T04:47:20.340Z,11.30
2018-10-19T04:49:48.956Z,11.20
2018-10-19T04:52:17.484Z,11.20
2018-10-19T04:54:45.904Z,11.20
2018-10-19T04:57:14.502Z,11.20
2018-10-19T04:59:42.874Z,11.20
2018-10-19T05:02:11.371Z,11.10
2018-10-19T05:04:39.935Z,11.10
2018-10-19T05:07:08.413Z,11.10
2018-10-19T05:09:36.812Z,11.10
2018-10-19T05:12:05.354Z,11.10
2018-10-19T05:14:33.762Z,11.10
2018-10-19T05:17:02.303Z,11.10
2018-10-19T05:19:30.826Z,11.10
2018-10-19T05:21:59.275Z,11.10
2018-10-19T05:24:27.728Z,11.00
2018-10-19T05:26:56.110Z,11.00
2018-10-19T05:29:24.490Z,11.00
2018-10-19T05:31:53.021Z,11.10
2018-10-19T05:34:21.407Z,11.00
2018-10-19T05:36:49.802Z,11.00
2018-10-19T05:39:18.157Z,11.00
2018-10-19T05:41:46.566Z,11.00
2018-10-19T05:44:15.608Z,11.00
2018-10-19T05:46:44.075Z,10.90
2018-10-19T05:49:12.559Z,11.00
2018-10-19T05:51:40.928Z,10.90
2018-10-19T05:54:09.278Z,10.90
2018-10-19T05:56:37.764Z,10.90
2018-10-19T05:59:06.262Z,10.90
2018-10-19T06:01:34.603Z,11.00
2018-10-19T06:04:03.152Z,10.90
2018-10-19T06:06:31.558Z,11.00
2018-10-19T06:09:00.047Z,11.00
2018-10-19T06:11:29.016Z,11.00
2018-10-19T06:13:57.529Z,11.10
2018-10-19T06:16:25.886Z,11.10
2018-10-19T06:18:54.398Z,11.20
2018-10-19T06:21:22.879Z,11.20
2018-10-19T06:23:51.241Z,11.30
2018-10-19T06:26:19.701Z,11.30
2018-10-19T06:28:48.026Z,11.20
2018-10-19T06:31:16.409Z,11.20
2018-10-19T06:33:44.810Z,11.20
2018-10-19T06:36:13.199Z,11.20
2018-10-19T06:38:41.615Z,11.20
2018-10-19T06:41:09.990Z,11.20
2018-10-19T06:43:38.333Z,11.30
2018-10-19T06:46:06.723Z,11.30
2018-10-19T06:48:35.075Z,11.50
2018-10-19T06:51:03.474Z,11.50
2018-10-19T06:53:31.982Z,11.60
2018-10-19T06:56:00.437Z,11.80
2018-10-19T06:58:28.801Z,11.80
2018-10-19T07:00:57.134Z,11.80
2018-10-19T07:03:25.521Z,11.90
2018-10-19T07:05:54.618Z,12.00
2018-10-19T07:08:23.005Z,12.00
2018-10-19T07:10:51.371Z,12.10
2018-10-19T07:13:19.754Z,12.10
2018-10-19T07:15:48.262Z,12.20
2018-10-19T07:18:16.671Z,12.30
2018-10-19T07:20:45.055Z,12.40
2018-10-19T07:23:13.502Z,12.50
2018-10-19T07:25:41.809Z,12.50
2018-10-19T07:28:10.482Z,12.60
2018-10-19T07:30:39.152Z,12.70
2018-10-19T07:33:07.597Z,12.70
2018-10-19T07:35:35.999Z,13.00
2018-10-19T07:38:04.915Z,13.00
2018-10-19T07:40:33.275Z,13.00
2018-10-19T07:43:01.721Z,13.10
2018-10-19T07:45:30.066Z,13.10
2018-10-19T07:47:58.658Z,13.20
2018-10-19T07:50:26.902Z,13.20
2018-10-19T07:52:55.343Z,13.20
2018-10-19T07:55:23.702Z,13.10
2018-10-19T07:57:52.073Z,13.30
2018-10-19T08:00:20.649Z,13.50
2018-10-19T08:02:48.971Z,13.80
2018-10-19T08:05:17.439Z,13.80
2018-10-19T08:07:45.876Z,13.50
2018-10-19T08:10:14.286Z,13.70
2018-10-19T08:12:42.719Z,13.90
2018-10-19T08:15:11.157Z,14.00
2018-10-19T08:17:39.605Z,14.20
2018-10-19T08:20:08.619Z,14.10
2018-10-19T08:22:37.218Z,14.20
2018-10-19T08:25:06.070Z,14.20
2018-10-19T08:27:34.535Z,14.40
2018-10-19T08:30:03.209Z,14.50
2018-10-19T08:32:31.916Z,14.60
2018-10-19T08:35:02.814Z,14.60
2018-10-19T08:37:31.603Z,14.70
2018-10-19T08:40:01.395Z,14.50
2018-10-19T08:42:29.992Z,14.60
2018-10-19T08:44:58.524Z,14.70
2018-10-19T08:47:27.247Z,15.00
2018-10-19T08:49:55.858Z,15.00
2018-10-19T08:52:25.512Z,15.10
2018-10-19T08:54:54.136Z,15.10
2018-10-19T08:57:22.894Z,15.30
2018-10-19T08:59:51.847Z,15.40
2018-10-19T09:02:20.686Z,15.50
2018-10-19T09:04:50.007Z,15.60
2018-10-19T09:07:19.236Z,15.70
2018-10-19T09:09:48.167Z,15.70
2018-10-19T09:12:17.138Z,15.70
2018-10-19T09:14:51.708Z,15.80
2018-10-19T09:17:20.796Z,15.90
2018-10-19T09:19:50.218Z,16.00
2018-10-19T09:22:20.159Z,16.20
2018-10-19T09:24:49.258Z,16.40
2018-10-19T09:27:18.566Z,16.40
2018-10-19T09:29:47.821Z,16.50
2018-10-19T09:32:17.140Z,16.50
2018-10-19T09:34:46.119Z,16.60
2018-10-19T09:37:15.187Z,16.60
2018-10-19T09:39:44.808Z,16.60
2018-10-19T09:42:13.846Z,16.70
2018-10-19T09:44:43.541Z,16.80
2018-10-19T09:47:12.808Z,16.80
2018-10-19T09:49:43.076Z,17.00
2018-10-19T09:52:11.887Z,16.90
2018-10-19T09:54:40.525Z,17.20
2018-10-19T09:57:09.215Z,17.30
2018-10-19T09:59:38.115Z,17.20
2018-10-19T10:02:06.953Z,17.30
2018-10-19T10:04:35.483Z,17.50
2018-10-19T10:07:04.384Z,17.80
2018-10-19T10:09:32.970Z,17.50
2018-10-19T10:12:02.059Z,17.40
2018-10-19T10:14:30.722Z,17.50
2018-10-19T10:16:59.533Z,17.70
2018-10-19T10:19:28.344Z,18.10
2018-10-19T10:21:57.232Z,18.20
2018-10-19T10:24:25.956Z,18.10
2018-10-19T10:26:54.722Z,18.20
2018-10-19T10:29:23.794Z,17.80
2018-10-19T10:31:52.679Z,18.00
2018-10-19T10:34:21.444Z,18.30
2018-10-19T10:36:50.229Z,18.00
2018-10-19T10:39:19.188Z,18.10
2018-10-19T10:41:48.167Z,18.20
2018-10-19T10:44:23.750Z,18.00
2018-10-19T10:46:52.628Z,17.90
2018-10-19T10:49:21.342Z,18.10
2018-10-19T10:51:51.348Z,18.40
2018-10-19T10:54:20.447Z,18.50
2018-10-19T10:56:49.625Z,18.70
2018-10-19T10:59:18.368Z,18.40
2018-10-19T11:01:47.327Z,18.40
2018-10-19T11:04:16.605Z,18.30
2018-10-19T11:06:45.320Z,18.30
2018-10-19T11:09:14.609Z,18.40
2018-10-19T11:11:43.450Z,18.60
2018-10-19T11:14:13.380Z,18.90
2018-10-19T11:16:42.709Z,17.80
2018-10-19T11:19:12.686Z,19.10
2018-10-19T11:21:41.287Z,19.30
2018-10-19T11:24:09.934Z,19.30
2018-10-19T11:26:38.694Z,19.20
2018-10-19T11:29:07.345Z,18.90
2018-10-19T11:31:36.055Z,18.90
2018-10-19T11:34:05.039Z,19.20
2018-10-19T11:36:33.647Z,19.50
2018-10-19T11:39:02.639Z,19.50
2018-10-19T11:41:31.278Z,19.20
2018-10-19T11:44:00.220Z,19.20
2018-10-19T11:46:28.867Z,19.50
2018-10-19T11:48:57.918Z,19.70
2018-10-19T11:51:26.635Z,19.70
2018-10-19T11:53:55.365Z,19.90
2018-10-19T11:56:23.980Z,20.00
2018-10-19T11:58:52.812Z,20.10
2018-10-19T12:01:21.893Z,20.40
2018-10-19T12:03:50.827Z,20.20
2018-10-19T12:06:19.806Z,20.10
2018-10-19T12:08:48.641Z,20.60
2018-10-19T12:11:18.582Z,21.70
2018-10-19T12:13:47.425Z,22.30
2018-10-19T12:16:16.584Z,22.00
2018-10-19T12:18:45.742Z,21.90
2018-10-19T12:21:14.508Z,22.10
2018-10-19T12:23:43.606Z,21.80
2018-10-19T12:26:12.466Z,21.80
2018-10-19T12:28:41.843Z,22.10
2018-10-19T12:31:10.715Z,22.50
2018-10-19T12:33:39.957Z,22.60
2018-10-19T12:36:08.701Z,22.40
2018-10-19T12:38:37.699Z,22.10
2018-10-19T12:41:07.047Z,22.30
2018-10-19T12:43:36.498Z,22.60
2018-10-19T12:46:30.411Z,22.90
2018-10-19T12:48:59.242Z,23.20
2018-10-19T12:51:28.041Z,22.90
2018-10-19T12:53:56.854Z,22.70
2018-10-19T12:56:25.444Z,22.80
2018-10-19T12:58:54.968Z,22.40
2018-10-19T13:01:25.089Z,23.30
2018-10-19T13:03:53.851Z,23.40
2018-10-19T13:06:22.607Z,24.00
2018-10-19T13:08:52.001Z,24.30
2018-10-19T13:11:20.827Z,23.90
2018-10-19T13:13:49.660Z,24.00
2018-10-19T13:16:18.579Z,23.70
2018-10-19T13:18:47.490Z,24.40
2018-10-19T13:21:16.369Z,24.70
2018-10-19T13:23:45.288Z,25.20
2018-10-19T13:26:13.919Z,24.90
2018-10-19T13:28:42.899Z,25.40
2018-10-19T13:31:11.877Z,24.80
2018-10-19T13:33:40.692Z,25.10
2018-10-19T13:36:09.596Z,25.30
2018-10-19T13:38:38.188Z,24.90
2018-10-19T13:41:06.971Z,25.70
2018-10-19T13:43:35.575Z,25.40
2018-10-19T13:46:04.562Z,25.80
2018-10-19T13:48:33.193Z,24.80
2018-10-19T13:51:01.979Z,24.00
2018-10-19T13:53:31.056Z,23.60
2018-10-19T13:55:59.983Z,24.10
2018-10-19T13:58:29.087Z,24.20
2018-10-19T14:00:57.769Z,23.80
2018-10-19T14:03:26.587Z,24.10
2018-10-19T14:05:55.347Z,24.40
2018-10-19T14:08:24.132Z,23.70
2018-10-19T14:10:52.803Z,23.20
2018-10-19T14:13:21.687Z,22.80
2018-10-19T14:15:50.734Z,23.50
2018-10-19T14:18:19.603Z,23.20
2018-10-19T14:20:48.990Z,23.20
2018-10-19T14:23:18.978Z,23.20
2018-10-19T14:25:48.760Z,23.30
2018-10-19T14:28:18.747Z,22.90
2018-10-19T14:30:48.947Z,22.70
2018-10-19T14:33:19.176Z,23.10
2018-10-19T14:35:48.100Z,22.40
2018-10-19T14:38:18.547Z,22.60
2018-10-19T14:40:48.881Z,22.30
2018-10-19T14:43:17.796Z,22.80
2018-10-19T14:45:46.795Z,22.70
2018-10-19T14:48:15.874Z,23.00
2018-10-19T14:50:46.340Z,23.20
2018-10-19T14:53:15.312Z,23.70
2018-10-19T14:55:44.417Z,23.30
2018-10-19T14:58:20.818Z,23.80
2018-10-19T15:00:49.456Z,23.80
2018-10-19T15:03:18.145Z,23.60
2018-10-19T15:05:46.864Z,23.40
2018-10-19T15:08:15.322Z,23.40
2018-10-19T15:10:44.287Z,23.60
2018-10-19T15:13:12.480Z,23.00
2018-10-19T15:15:41.030Z,22.70
2018-10-19T15:18:09.614Z,22.70
2018-10-19T15:20:38.092Z,22.40
2018-10-19T15:23:06.671Z,22.90
2018-10-19T15:25:35.186Z,23.60
2018-10-19T15:28:03.772Z,23.60
2018-10-19T15:30:32.299Z,23.70
2018-10-19T15:33:00.801Z,23.30
2018-10-19T15:35:29.522Z,23.10
2018-10-19T15:37:57.993Z,23.00
2018-10-19T15:40:26.444Z,23.30
2018-10-19T15:42:54.921Z,22.60
2018-10-19T15:45:23.456Z,22.60
2018-10-19T15:47:52.025Z,22.50
2018-10-19T15:50:20.529Z,21.80
2018-10-19T15:52:49.152Z,21.60
2018-10-19T15:55:17.773Z,21.50
2018-10-19T15:57:46.263Z,21.00
2018-10-19T16:00:14.876Z,20.90
2018-10-19T16:02:43.375Z,20.80
2018-10-19T16:05:11.967Z,20.50
2018-10-19T16:07:40.516Z,19.80
2018-10-19T16:10:09.073Z,19.60
2018-10-19T16:12:37.634Z,19.20
2018-10-19T16:15:08.941Z,19.00
2018-10-19T16:17:45.244Z,18.90
2018-10-19T16:20:13.751Z,18.70
2018-10-19T16:22:42.437Z,18.60
2018-10-19T16:25:10.910Z,18.50
2018-10-19T16:27:39.741Z,18.40
2018-10-19T16:30:09.461Z,18.40
2018-10-19T16:32:38.489Z,18.40
2018-10-19T16:35:08.119Z,18.30
2018-10-19T16:37:37.019Z,18.20
2018-10-19T16:40:06.729Z,18.20
2018-10-19T16:42:36.150Z,18.20
2018-10-19T16:45:05.429Z,18.00
2018-10-19T16:47:34.169Z,18.00
2018-10-19T16:50:02.703Z,18.00
2018-10-19T16:52:31.277Z,17.90
2018-10-19T16:54:59.658Z,17.90
2018-10-19T16:57:28.653Z,17.80
2018-10-19T16:59:57.172Z,17.80
2018-10-19T17:02:25.651Z,17.80
2018-10-19T17:04:54.078Z,17.80
2018-10-19T17:07:22.610Z,17.70
2018-10-19T17:09:51.165Z,17.70
2018-10-19T17:12:19.658Z,17.60
2018-10-19T17:14:48.176Z,17.60
2018-10-19T17:17:16.630Z,17.50
2018-10-19T17:19:45.148Z,17.50
2018-10-19T17:22:13.858Z,17.40
2018-10-19T17:24:42.471Z,17.30
2018-10-19T17:27:10.965Z,17.40
2018-10-19T17:29:39.446Z,17.40
2018-10-19T17:32:08.095Z,17.30
2018-10-19T17:34:38.141Z,17.20
2018-10-19T17:37:10.922Z,17.30
2018-10-19T17:39:39.827Z,17.20
2018-10-19T17:42:08.463Z,17.20
2018-10-19T17:44:36.955Z,17.10
2018-10-19T17:47:05.912Z,17.10
2018-10-19T17:49:34.432Z,17.00
2018-10-19T17:52:02.927Z,16.90
2018-10-19T17:54:31.629Z,16.90
2018-10-19T17:56:59.955Z,16.80
2018-10-19T17:59:28.540Z,16.70
2018-10-19T18:01:57.079Z,16.70
2018-10-19T18:04:25.575Z,16.70
2018-10-19T18:06:54.204Z,16.60
2018-10-19T18:09:23.061Z,16.60
2018-10-19T18:11:51.685Z,16.50
2018-10-19T18:14:20.406Z,16.60
2018-10-19T18:16:48.957Z,16.50
2018-10-19T18:19:17.468Z,16.50
2018-10-19T18:21:46.313Z,16.50
2018-10-19T18:24:14.749Z,16.50
2018-10-19T18:26:43.512Z,16.50
2018-10-19T18:29:12.927Z,16.40
2018-10-19T18:31:41.405Z,16.30
2018-10-19T18:34:09.987Z,16.30
2018-10-19T18:36:38.962Z,16.30
2018-10-19T18:39:11.164Z,16.30
2018-10-19T18:41:39.825Z,16.30
2018-10-19T18:44:08.593Z,16.20
2018-10-19T18:46:37.475Z,16.20
2018-10-19T18:49:06.963Z,16.10
2018-10-19T18:51:35.689Z,16.10
2018-10-19T18:54:05.163Z,16.00
2018-10-19T18:56:33.623Z,16.00
2018-10-19T18:59:02.252Z,16.00
2018-10-19T19:01:30.839Z,15.90
2018-10-19T19:03:59.228Z,15.80
2018-10-19T19:06:27.706Z,15.80
2018-10-19T19:08:57.074Z,15.70
2018-10-19T19:11:25.484Z,15.70
2018-10-19T19:13:54.117Z,15.60
2018-10-19T19:16:28.105Z,15.60
2018-10-19T19:18:56.488Z,15.50
2018-10-19T19:21:24.959Z,15.40
2018-10-19T19:23:59.007Z,15.50
2018-10-19T19:26:28.126Z,15.40
2018-10-19T19:28:56.844Z,15.40
2018-10-19T19:31:25.331Z,15.40
2018-10-19T19:33:59.806Z,15.30
2018-10-19T19:36:28.585Z,15.30
2018-10-19T19:38:57.076Z,15.30
2018-10-19T19:41:30.799Z,15.30
2018-10-19T19:43:59.627Z,15.30
2018-10-19T19:46:28.150Z,15.20
2018-10-19T19:49:02.144Z,15.20
2018-10-19T19:51:30.743Z,15.10
2018-10-19T19:53:59.352Z,15.00
2018-10-19T19:56:28.307Z,15.00
2018-10-19T19:58:56.908Z,15.00
2018-10-19T20:01:25.773Z,14.90
2018-10-19T20:03:54.368Z,14.90
2018-10-19T20:06:23.378Z,14.80
2018-10-19T20:08:51.945Z,14.80
2018-10-19T20:11:20.447Z,14.80
2018-10-19T20:13:48.900Z,14.70
2018-10-19T20:16:17.523Z,14.70
2018-10-19T20:18:45.972Z,14.60
2018-10-19T20:21:14.502Z,14.70
2018-10-19T20:23:43.020Z,14.60
2018-10-19T20:26:11.580Z,14.60
2018-10-19T20:28:40.297Z,14.50
2018-10-19T20:31:08.801Z,14.50
2018-10-19T20:33:37.424Z,14.40
2018-10-19T20:36:05.978Z,14.40
2018-10-19T20:38:34.429Z,14.50
2018-10-19T20:41:03.001Z,14.40
2018-10-19T20:43:31.790Z,14.40
2018-10-19T20:46:00.321Z,14.40
2018-10-19T20:48:28.822Z,14.30
2018-10-19T20:50:57.544Z,14.30
2018-10-19T20:53:26.207Z,14.30
2018-10-19T20:55:54.875Z,14.20
2018-10-19T20:58:23.366Z,14.10
2018-10-19T21:00:51.908Z,14.10
2018-10-19T21:03:20.422Z,14.10
2018-10-19T21:05:48.998Z,14.20
2018-10-19T21:08:17.499Z,14.10
2018-10-19T21:10:46.060Z,14.20
2018-10-19T21:13:14.576Z,14.10
2018-10-19T21:15:43.037Z,14.20
2018-10-19T21:18:11.560Z,14.20
2018-10-19T21:20:39.932Z,14.20
2018-10-19T21:23:08.457Z,14.20
2018-10-19T21:25:36.991Z,14.30
2018-10-19T21:28:05.753Z,14.30
2018-10-19T21:30:34.348Z,14.30
2018-10-19T21:33:02.910Z,14.30
2018-10-19T21:35:31.536Z,14.30
2018-10-19T21:38:00.228Z,14.20
2018-10-19T21:40:28.704Z,14.20
2018-10-19T21:42:57.277Z,14.10
2018-10-19T21:45:25.904Z,14.10
2018-10-19T21:47:54.338Z,14.10
2018-10-19T21:50:23.994Z,14.10
2018-10-19T21:52:53.470Z,14.10
2018-10-19T21:55:21.946Z,14.00
2018-10-19T21:57:50.415Z,13.90
2018-10-19T22:00:18.966Z,13.90
2018-10-19T22:02:47.609Z,14.00
2018-10-19T22:05:16.304Z,13.90
2018-10-19T22:07:44.933Z,13.80
2018-10-19T22:10:13.595Z,13.80
2018-10-19T22:12:48.620Z,13.70
2018-10-19T22:15:17.060Z,13.80
2018-10-19T22:17:45.653Z,13.80
2018-10-19T22:20:14.290Z,13.80
2018-10-19T22:22:43.174Z,13.80
2018-10-19T22:25:12.514Z,13.70
2018-10-19T22:27:40.994Z,13.70
2018-10-19T22:30:10.096Z,13.70
2018-10-19T22:32:38.923Z,13.50
2018-10-19T22:35:07.645Z,13.60
2018-10-19T22:37:36.143Z,13.50
2018-10-19T22:40:06.174Z,13.70
2018-10-19T22:42:34.777Z,13.70
2018-10-19T22:45:03.457Z,13.70
2018-10-19T22:47:32.034Z,13.80
2018-10-19T22:50:00.522Z,13.90
2018-10-19T22:52:28.989Z,13.80
2018-10-19T22:54:57.489Z,13.90
2018-10-19T22:57:25.980Z,14.10
2018-10-19T22:59:54.717Z,14.10
2018-10-19T23:02:23.152Z,14.00
2018-10-19T23:04:51.735Z,13.90
2018-10-19T23:07:20.407Z,14.10
2018-10-19T23:09:48.868Z,14.10
2018-10-19T23:12:17.337Z,14.10
2018-10-19T23:14:46.111Z,14.20
2018-10-19T23:17:14.699Z,14.10
2018-10-19T23:19:43.154Z,13.60
2018-10-19T23:22:11.895Z,14.10
2018-10-19T23:24:40.528Z,14.10
2018-10-19T23:27:09.165Z,14.00
2018-10-19T23:29:37.829Z,14.00
2018-10-19T23:32:06.511Z,14.00
2018-10-19T23:34:35.464Z,14.00
2018-10-19T23:37:04.302Z,14.00
2018-10-19T23:39:32.928Z,13.90
2018-10-19T23:42:01.558Z,14.00
2018-10-19T23:44:30.181Z,13.90
2018-10-19T23:46:58.758Z,13.90
2018-10-19T23:49:27.516Z,13.90
2018-10-19T23:51:56.198Z,13.80
2018-10-19T23:54:24.800Z,13.90
2018-10-19T23:56:53.438Z,13.90
2018-10-19T23:59:22.091Z,14.00
